sensor_id;sensor_type;location;lat;lon;timestamp;pressure;altitude;pressure_sealevel;temperature;humidity
75998;BME280;64685;48.762;44.822;2023-04-29T00:04:30;100602.19;;;15.07;63.19
75998;BME280;64685;48.762;44.822;2023-04-29T00:09:33;100603.34;;;15.06;63.25
75998;BME280;64685;48.762;44.822;2023-04-29T00:14:36;100598.31;;;14.99;63.66
75998;BME280;64685;48.762;44.822;2023-04-29T00:19:38;100600.69;;;14.97;63.78
75998;BME280;64685;48.762;44.822;2023-04-29T00:24:43;100589.78;;;14.96;63.65
75998;BME280;64685;48.762;44.822;2023-04-29T00:29:46;100591.22;;;14.90;63.76
75998;BME280;64685;48.762;44.822;2023-04-29T00:34:48;100594.25;;;14.85;63.94
75998;BME280;64685;48.762;44.822;2023-04-29T00:39:51;100591.69;;;14.80;64.59
75998;BME280;64685;48.762;44.822;2023-04-29T00:44:54;100592.16;;;14.70;64.49
75998;BME280;64685;48.762;44.822;2023-04-29T00:49:57;100594.41;;;14.64;65.05
75998;BME280;64685;48.762;44.822;2023-04-29T00:55:00;100590.56;;;14.57;64.80
75998;BME280;64685;48.762;44.822;2023-04-29T01:00:04;100588.09;;;14.55;65.11
75998;BME280;64685;48.762;44.822;2023-04-29T01:05:08;100587.88;;;14.48;65.02
75998;BME280;64685;48.762;44.822;2023-04-29T01:10:31;100596.53;;;14.43;65.19
75998;BME280;64685;48.762;44.822;2023-04-29T01:20:52;100576.75;;;14.40;65.65
75998;BME280;64685;48.762;44.822;2023-04-29T01:25:56;100584.00;;;14.41;65.48
75998;BME280;64685;48.762;44.822;2023-04-29T01:31:31;100588.66;;;14.37;65.84
75998;BME280;64685;48.762;44.822;2023-04-29T01:42:21;100599.78;;;14.33;66.38
75998;BME280;64685;48.762;44.822;2023-04-29T01:47:28;100599.00;;;14.33;66.33
75998;BME280;64685;48.762;44.822;2023-04-29T01:52:32;100598.03;;;14.29;66.50
75998;BME280;64685;48.762;44.822;2023-04-29T01:57:34;100602.25;;;14.35;66.22
75998;BME280;64685;48.762;44.822;2023-04-29T02:02:57;100607.31;;;14.41;66.23
75998;BME280;64685;48.762;44.822;2023-04-29T02:08:06;100607.53;;;14.36;66.55
75998;BME280;64685;48.762;44.822;2023-04-29T02:13:13;100606.03;;;14.39;66.64
75998;BME280;64685;48.762;44.822;2023-04-29T02:18:16;100614.44;;;14.39;66.64
75998;BME280;64685;48.762;44.822;2023-04-29T02:23:21;100617.44;;;14.82;66.03
75998;BME280;64685;48.762;44.822;2023-04-29T02:28:24;100619.13;;;15.34;64.66
75998;BME280;64685;48.762;44.822;2023-04-29T02:33:27;100622.75;;;16.05;63.04
75998;BME280;64685;48.762;44.822;2023-04-29T02:38:29;100628.91;;;16.54;61.37
75998;BME280;64685;48.762;44.822;2023-04-29T02:43:32;100637.88;;;17.09;60.15
75998;BME280;64685;48.762;44.822;2023-04-29T02:48:35;100646.94;;;17.91;58.04
75998;BME280;64685;48.762;44.822;2023-04-29T02:53:38;100657.41;;;18.51;56.01
75998;BME280;64685;48.762;44.822;2023-04-29T02:58:40;100656.25;;;18.55;55.03
75998;BME280;64685;48.762;44.822;2023-04-29T03:03:43;100665.59;;;19.30;53.78
75998;BME280;64685;48.762;44.822;2023-04-29T03:08:46;100666.63;;;19.74;52.47
75998;BME280;64685;48.762;44.822;2023-04-29T03:13:49;100668.06;;;19.94;51.84
75998;BME280;64685;48.762;44.822;2023-04-29T03:18:52;100657.34;;;20.47;50.58
75998;BME280;64685;48.762;44.822;2023-04-29T03:23:54;100662.34;;;21.11;49.63
75998;BME280;64685;48.762;44.822;2023-04-29T03:29:03;100658.34;;;21.87;48.27
75998;BME280;64685;48.762;44.822;2023-04-29T03:34:06;100657.22;;;22.12;47.18
75998;BME280;64685;48.762;44.822;2023-04-29T03:39:13;100662.25;;;20.93;48.77
75998;BME280;64685;48.762;44.822;2023-04-29T03:44:16;100659.50;;;21.11;48.91
75998;BME280;64685;48.762;44.822;2023-04-29T03:49:19;100645.75;;;21.88;47.95
75998;BME280;64685;48.762;44.822;2023-04-29T03:54:23;100651.53;;;22.09;47.25
75998;BME280;64685;48.762;44.822;2023-04-29T03:59:25;100649.16;;;22.39;46.54
75998;BME280;64685;48.762;44.822;2023-04-29T04:04:28;100639.00;;;23.08;45.31
75998;BME280;64685;48.762;44.822;2023-04-29T04:09:32;100648.03;;;24.24;43.34
75998;BME280;64685;48.762;44.822;2023-04-29T04:14:35;100645.53;;;23.19;44.14
75998;BME280;64685;48.762;44.822;2023-04-29T04:19:38;100641.44;;;22.39;45.59
75998;BME280;64685;48.762;44.822;2023-04-29T04:24:40;100649.97;;;23.44;44.77
75998;BME280;64685;48.762;44.822;2023-04-29T04:29:43;100642.66;;;23.43;45.07
75998;BME280;64685;48.762;44.822;2023-04-29T04:34:54;100630.56;;;25.57;41.87
75998;BME280;64685;48.762;44.822;2023-04-29T04:39:57;100626.72;;;24.93;42.03
75998;BME280;64685;48.762;44.822;2023-04-29T04:45:00;100624.47;;;24.71;42.99
75998;BME280;64685;48.762;44.822;2023-04-29T04:50:13;100619.38;;;26.60;39.57
75998;BME280;64685;48.762;44.822;2023-04-29T04:55:19;100629.63;;;27.30;37.19
75998;BME280;64685;48.762;44.822;2023-04-29T05:00:25;100632.41;;;27.56;36.95
75998;BME280;64685;48.762;44.822;2023-04-29T05:05:28;100630.53;;;28.08;36.45
75998;BME280;64685;48.762;44.822;2023-04-29T05:10:30;100621.47;;;27.71;36.70
75998;BME280;64685;48.762;44.822;2023-04-29T05:15:36;100607.25;;;26.75;37.75
75998;BME280;64685;48.762;44.822;2023-04-29T05:20:40;100607.50;;;26.05;38.84
75998;BME280;64685;48.762;44.822;2023-04-29T05:25:42;100603.75;;;26.38;38.20
75998;BME280;64685;48.762;44.822;2023-04-29T05:30:45;100601.59;;;26.95;37.87
75998;BME280;64685;48.762;44.822;2023-04-29T05:35:48;100591.50;;;26.64;37.94
75998;BME280;64685;48.762;44.822;2023-04-29T05:40:51;100616.69;;;26.19;38.25
75998;BME280;64685;48.762;44.822;2023-04-29T05:46:12;100626.19;;;27.81;36.28
75998;BME280;64685;48.762;44.822;2023-04-29T05:51:15;100621.28;;;27.39;36.22
75998;BME280;64685;48.762;44.822;2023-04-29T05:56:18;100609.16;;;27.51;36.73
75998;BME280;64685;48.762;44.822;2023-04-29T06:01:21;100600.91;;;27.72;35.96
75998;BME280;64685;48.762;44.822;2023-04-29T06:06:24;100586.81;;;29.16;34.45
75998;BME280;64685;48.762;44.822;2023-04-29T06:11:36;100576.50;;;30.79;32.21
75998;BME280;64685;48.762;44.822;2023-04-29T06:16:39;100571.34;;;31.42;30.97
75998;BME280;64685;48.762;44.822;2023-04-29T06:22:01;100572.84;;;31.68;29.93
75998;BME280;64685;48.762;44.822;2023-04-29T06:27:05;100575.06;;;31.86;30.12
75998;BME280;64685;48.762;44.822;2023-04-29T06:32:08;100572.03;;;32.11;28.54
75998;BME280;64685;48.762;44.822;2023-04-29T06:37:10;100577.66;;;33.42;26.86
75998;BME280;64685;48.762;44.822;2023-04-29T06:42:26;100581.56;;;32.51;27.03
75998;BME280;64685;48.762;44.822;2023-04-29T06:47:55;100586.75;;;32.65;26.60
75998;BME280;64685;48.762;44.822;2023-04-29T06:53:10;100582.44;;;33.18;25.50
75998;BME280;64685;48.762;44.822;2023-04-29T06:58:15;100583.97;;;32.22;26.15
75998;BME280;64685;48.762;44.822;2023-04-29T07:03:18;100580.13;;;31.73;26.57
75998;BME280;64685;48.762;44.822;2023-04-29T07:08:21;100567.63;;;31.08;26.57
75998;BME280;64685;48.762;44.822;2023-04-29T07:13:25;100567.59;;;30.74;27.06
75998;BME280;64685;48.762;44.822;2023-04-29T07:18:28;100567.28;;;30.47;27.43
75998;BME280;64685;48.762;44.822;2023-04-29T07:23:31;100558.84;;;30.77;27.60
75998;BME280;64685;48.762;44.822;2023-04-29T07:28:34;100563.84;;;31.66;26.57
75998;BME280;64685;48.762;44.822;2023-04-29T07:33:39;100562.94;;;31.01;26.90
75998;BME280;64685;48.762;44.822;2023-04-29T07:38:43;100562.25;;;30.97;27.32
75998;BME280;64685;48.762;44.822;2023-04-29T07:43:46;100567.31;;;31.40;27.39
75998;BME280;64685;48.762;44.822;2023-04-29T07:48:48;100550.84;;;32.14;26.57
75998;BME280;64685;48.762;44.822;2023-04-29T07:53:52;100562.97;;;32.00;26.93
75998;BME280;64685;48.762;44.822;2023-04-29T07:58:55;100560.19;;;32.18;27.58
75998;BME280;64685;48.762;44.822;2023-04-29T08:03:58;100545.91;;;33.11;26.65
75998;BME280;64685;48.762;44.822;2023-04-29T08:09:02;100558.41;;;31.90;27.46
75998;BME280;64685;48.762;44.822;2023-04-29T08:14:05;100546.94;;;31.77;28.13
75998;BME280;64685;48.762;44.822;2023-04-29T08:19:08;100555.63;;;31.09;28.70
75998;BME280;64685;48.762;44.822;2023-04-29T08:24:11;100551.47;;;31.10;28.92
75998;BME280;64685;48.762;44.822;2023-04-29T08:29:15;100542.97;;;29.41;30.76
75998;BME280;64685;48.762;44.822;2023-04-29T08:34:17;100541.28;;;28.67;31.98
75998;BME280;64685;48.762;44.822;2023-04-29T08:39:20;100527.38;;;28.94;32.22
75998;BME280;64685;48.762;44.822;2023-04-29T08:44:24;100519.88;;;29.00;32.66
75998;BME280;64685;48.762;44.822;2023-04-29T08:49:28;100532.97;;;29.17;33.10
75998;BME280;64685;48.762;44.822;2023-04-29T08:54:31;100538.66;;;29.61;32.37
75998;BME280;64685;48.762;44.822;2023-04-29T08:59:35;100532.69;;;29.68;32.97
75998;BME280;64685;48.762;44.822;2023-04-29T09:04:46;100523.44;;;30.02;32.87
75998;BME280;64685;48.762;44.822;2023-04-29T09:09:50;100522.59;;;30.76;31.94
75998;BME280;64685;48.762;44.822;2023-04-29T09:14:55;100521.47;;;31.63;31.43
75998;BME280;64685;48.762;44.822;2023-04-29T09:20:00;100515.16;;;32.08;30.78
75998;BME280;64685;48.762;44.822;2023-04-29T09:25:13;100505.72;;;31.86;29.89
75998;BME280;64685;48.762;44.822;2023-04-29T09:30:16;100500.06;;;31.73;30.45
75998;BME280;64685;48.762;44.822;2023-04-29T09:35:22;100493.66;;;31.35;30.99
75998;BME280;64685;48.762;44.822;2023-04-29T09:40:29;100501.88;;;30.31;32.59
75998;BME280;64685;48.762;44.822;2023-04-29T09:45:38;100494.13;;;30.66;32.12
75998;BME280;64685;48.762;44.822;2023-04-29T09:50:43;100497.84;;;30.41;31.56
75998;BME280;64685;48.762;44.822;2023-04-29T09:56:01;100493.00;;;30.38;33.13
75998;BME280;64685;48.762;44.822;2023-04-29T10:01:04;100489.06;;;30.70;32.53
75998;BME280;64685;48.762;44.822;2023-04-29T10:06:07;100481.00;;;29.77;33.87
75998;BME280;64685;48.762;44.822;2023-04-29T10:11:10;100471.72;;;29.45;34.35
75998;BME280;64685;48.762;44.822;2023-04-29T10:16:30;100470.88;;;29.44;35.02
75998;BME280;64685;48.762;44.822;2023-04-29T10:21:35;100479.47;;;29.32;35.07
75998;BME280;64685;48.762;44.822;2023-04-29T10:26:40;100477.25;;;28.95;35.91
75998;BME280;64685;48.762;44.822;2023-04-29T10:31:45;100481.06;;;28.60;36.33
75998;BME280;64685;48.762;44.822;2023-04-29T10:36:48;100457.53;;;28.01;36.57
75998;BME280;64685;48.762;44.822;2023-04-29T10:41:52;100453.84;;;27.84;37.44
75998;BME280;64685;48.762;44.822;2023-04-29T10:47:18;100455.22;;;27.96;37.30
75998;BME280;64685;48.762;44.822;2023-04-29T10:52:21;100458.28;;;28.05;38.51
75998;BME280;64685;48.762;44.822;2023-04-29T10:57:23;100453.06;;;28.00;37.25
75998;BME280;64685;48.762;44.822;2023-04-29T11:02:26;100451.28;;;28.22;37.91
75998;BME280;64685;48.762;44.822;2023-04-29T11:07:29;100451.34;;;28.34;38.79
75998;BME280;64685;48.762;44.822;2023-04-29T11:12:31;100448.84;;;28.04;38.73
75998;BME280;64685;48.762;44.822;2023-04-29T11:17:35;100445.41;;;27.58;38.27
75998;BME280;64685;48.762;44.822;2023-04-29T11:22:39;100446.47;;;27.48;37.81
75998;BME280;64685;48.762;44.822;2023-04-29T11:27:42;100457.59;;;27.26;38.16
75998;BME280;64685;48.762;44.822;2023-04-29T11:33:07;100455.72;;;26.97;39.80
75998;BME280;64685;48.762;44.822;2023-04-29T11:38:10;100461.53;;;26.93;40.46
75998;BME280;64685;48.762;44.822;2023-04-29T11:43:17;100444.91;;;26.85;39.75
75998;BME280;64685;48.762;44.822;2023-04-29T11:48:22;100454.19;;;26.92;40.20
75998;BME280;64685;48.762;44.822;2023-04-29T11:53:26;100456.19;;;26.95;39.76
75998;BME280;64685;48.762;44.822;2023-04-29T11:58:31;100437.06;;;27.08;38.90
75998;BME280;64685;48.762;44.822;2023-04-29T12:03:34;100423.25;;;27.03;39.51
75998;BME280;64685;48.762;44.822;2023-04-29T12:08:38;100421.53;;;27.06;39.91
75998;BME280;64685;48.762;44.822;2023-04-29T12:13:40;100419.28;;;27.17;40.04
75998;BME280;64685;48.762;44.822;2023-04-29T12:18:43;100418.44;;;27.20;40.95
75998;BME280;64685;48.762;44.822;2023-04-29T12:23:46;100419.84;;;27.08;41.38
75998;BME280;64685;48.762;44.822;2023-04-29T12:28:52;100410.97;;;27.22;41.88
75998;BME280;64685;48.762;44.822;2023-04-29T12:33:55;100416.31;;;27.40;41.91
75998;BME280;64685;48.762;44.822;2023-04-29T12:38:58;100411.59;;;27.10;42.04
75998;BME280;64685;48.762;44.822;2023-04-29T12:44:00;100410.69;;;27.17;42.83
75998;BME280;64685;48.762;44.822;2023-04-29T12:49:04;100401.75;;;27.31;42.81
75998;BME280;64685;48.762;44.822;2023-04-29T12:54:06;100392.00;;;27.09;42.99
75998;BME280;64685;48.762;44.822;2023-04-29T12:59:09;100384.44;;;26.79;43.77
75998;BME280;64685;48.762;44.822;2023-04-29T13:04:13;100382.53;;;26.50;44.16
75998;BME280;64685;48.762;44.822;2023-04-29T13:09:16;100383.25;;;26.57;44.60
75998;BME280;64685;48.762;44.822;2023-04-29T13:14:20;100381.56;;;26.37;44.74
75998;BME280;64685;48.762;44.822;2023-04-29T13:19:23;100381.56;;;26.37;44.62
75998;BME280;64685;48.762;44.822;2023-04-29T13:24:46;100373.91;;;26.30;44.69
75998;BME280;64685;48.762;44.822;2023-04-29T13:29:48;100377.34;;;26.22;45.19
75998;BME280;64685;48.762;44.822;2023-04-29T13:34:51;100373.69;;;26.21;45.22
75998;BME280;64685;48.762;44.822;2023-04-29T13:39:54;100372.59;;;26.12;45.51
75998;BME280;64685;48.762;44.822;2023-04-29T13:44:58;100370.69;;;26.05;45.37
75998;BME280;64685;48.762;44.822;2023-04-29T13:50:01;100369.94;;;26.01;45.62
75998;BME280;64685;48.762;44.822;2023-04-29T13:55:17;100375.53;;;26.08;45.29
75998;BME280;64685;48.762;44.822;2023-04-29T14:00:22;100371.44;;;26.09;45.27
75998;BME280;64685;48.762;44.822;2023-04-29T14:05:28;100365.28;;;26.11;43.61
75998;BME280;64685;48.762;44.822;2023-04-29T14:10:30;100359.94;;;26.13;43.15
75998;BME280;64685;48.762;44.822;2023-04-29T14:15:33;100369.81;;;26.08;43.18
75998;BME280;64685;48.762;44.822;2023-04-29T14:20:36;100354.38;;;26.02;43.09
75998;BME280;64685;48.762;44.822;2023-04-29T14:25:38;100349.84;;;26.05;43.55
75998;BME280;64685;48.762;44.822;2023-04-29T14:30:41;100337.13;;;26.06;43.91
75998;BME280;64685;48.762;44.822;2023-04-29T14:35:47;100332.31;;;26.03;44.22
75998;BME280;64685;48.762;44.822;2023-04-29T14:40:50;100327.44;;;26.00;44.89
75998;BME280;64685;48.762;44.822;2023-04-29T14:45:52;100320.97;;;25.96;44.62
75998;BME280;64685;48.762;44.822;2023-04-29T14:50:55;100318.50;;;25.98;44.86
75998;BME280;64685;48.762;44.822;2023-04-29T14:55:58;100317.38;;;25.92;44.43
75998;BME280;64685;48.762;44.822;2023-04-29T15:01:00;100303.16;;;25.85;44.75
75998;BME280;64685;48.762;44.822;2023-04-29T15:06:03;100296.69;;;25.81;44.93
75998;BME280;64685;48.762;44.822;2023-04-29T15:11:06;100285.38;;;25.74;44.80
75998;BME280;64685;48.762;44.822;2023-04-29T15:16:08;100282.69;;;25.63;44.45
75998;BME280;64685;48.762;44.822;2023-04-29T15:21:11;100276.28;;;25.56;44.76
75998;BME280;64685;48.762;44.822;2023-04-29T15:26:14;100272.00;;;25.44;45.23
75998;BME280;64685;48.762;44.822;2023-04-29T15:31:16;100268.44;;;25.37;45.69
75998;BME280;64685;48.762;44.822;2023-04-29T15:36:29;100275.84;;;25.34;45.46
75998;BME280;64685;48.762;44.822;2023-04-29T15:41:32;100266.56;;;25.27;45.91
75998;BME280;64685;48.762;44.822;2023-04-29T15:46:34;100261.78;;;25.17;45.93
75998;BME280;64685;48.762;44.822;2023-04-29T15:51:37;100269.34;;;25.04;46.25
75998;BME280;64685;48.762;44.822;2023-04-29T15:56:39;100267.06;;;24.92;46.82
75998;BME280;64685;48.762;44.822;2023-04-29T16:01:42;100264.88;;;24.76;47.38
75998;BME280;64685;48.762;44.822;2023-04-29T16:06:45;100259.72;;;24.64;47.07
75998;BME280;64685;48.762;44.822;2023-04-29T16:11:47;100256.19;;;24.53;47.34
75998;BME280;64685;48.762;44.822;2023-04-29T16:16:50;100242.06;;;24.39;47.03
75998;BME280;64685;48.762;44.822;2023-04-29T16:21:53;100243.41;;;24.31;47.60
75998;BME280;64685;48.762;44.822;2023-04-29T16:26:56;100236.66;;;24.15;47.36
75998;BME280;64685;48.762;44.822;2023-04-29T16:32:00;100225.03;;;23.99;47.76
75998;BME280;64685;48.762;44.822;2023-04-29T16:37:03;100224.44;;;23.77;48.46
75998;BME280;64685;48.762;44.822;2023-04-29T16:42:05;100223.06;;;23.52;49.28
75998;BME280;64685;48.762;44.822;2023-04-29T16:47:08;100223.28;;;23.27;49.94
75998;BME280;64685;48.762;44.822;2023-04-29T16:52:11;100216.94;;;23.06;50.65
75998;BME280;64685;48.762;44.822;2023-04-29T16:57:16;100208.53;;;22.88;51.08
75998;BME280;64685;48.762;44.822;2023-04-29T17:02:19;100204.19;;;22.70;51.37
75998;BME280;64685;48.762;44.822;2023-04-29T17:07:22;100192.94;;;22.49;51.53
75998;BME280;64685;48.762;44.822;2023-04-29T17:12:24;100209.63;;;22.40;51.74
75998;BME280;64685;48.762;44.822;2023-04-29T17:17:27;100205.22;;;22.28;51.98
75998;BME280;64685;48.762;44.822;2023-04-29T17:22:30;100202.81;;;22.20;52.16
75998;BME280;64685;48.762;44.822;2023-04-29T17:27:34;100199.22;;;22.09;52.55
75998;BME280;64685;48.762;44.822;2023-04-29T17:32:36;100209.41;;;22.03;53.04
75998;BME280;64685;48.762;44.822;2023-04-29T17:37:42;100206.16;;;21.94;53.55
75998;BME280;64685;48.762;44.822;2023-04-29T17:42:45;100197.25;;;21.85;54.90
75998;BME280;64685;48.762;44.822;2023-04-29T17:47:47;100194.44;;;21.78;55.73
75998;BME280;64685;48.762;44.822;2023-04-29T17:52:50;100188.78;;;21.71;56.79
75998;BME280;64685;48.762;44.822;2023-04-29T17:57:54;100193.22;;;21.65;57.60
75998;BME280;64685;48.762;44.822;2023-04-29T18:02:57;100188.38;;;21.51;57.96
75998;BME280;64685;48.762;44.822;2023-04-29T18:08:00;100203.41;;;21.41;58.54
75998;BME280;64685;48.762;44.822;2023-04-29T18:13:02;100198.97;;;21.33;58.25
75998;BME280;64685;48.762;44.822;2023-04-29T18:18:05;100199.78;;;21.27;58.39
75998;BME280;64685;48.762;44.822;2023-04-29T18:23:08;100202.63;;;21.20;58.26
75998;BME280;64685;48.762;44.822;2023-04-29T18:28:10;100205.50;;;21.16;58.07
75998;BME280;64685;48.762;44.822;2023-04-29T18:33:25;100193.72;;;21.11;58.44
75998;BME280;64685;48.762;44.822;2023-04-29T18:38:30;100190.06;;;21.10;58.15
75998;BME280;64685;48.762;44.822;2023-04-29T18:43:33;100179.50;;;21.11;57.95
75998;BME280;64685;48.762;44.822;2023-04-29T18:48:35;100184.38;;;21.17;57.45
75998;BME280;64685;48.762;44.822;2023-04-29T18:53:40;100177.50;;;21.11;57.47
75998;BME280;64685;48.762;44.822;2023-04-29T18:58:43;100183.16;;;20.97;57.66
75998;BME280;64685;48.762;44.822;2023-04-29T19:03:45;100172.56;;;20.77;58.17
75998;BME280;64685;48.762;44.822;2023-04-29T19:08:48;100171.31;;;20.50;58.75
75998;BME280;64685;48.762;44.822;2023-04-29T19:13:52;100155.91;;;20.30;58.93
75998;BME280;64685;48.762;44.822;2023-04-29T19:18:54;100159.06;;;20.07;59.19
75998;BME280;64685;48.762;44.822;2023-04-29T19:23:57;100173.94;;;19.90;59.11
75998;BME280;64685;48.762;44.822;2023-04-29T19:29:00;100154.91;;;19.80;58.66
75998;BME280;64685;48.762;44.822;2023-04-29T19:34:02;100162.97;;;19.82;57.96
75998;BME280;64685;48.762;44.822;2023-04-29T19:39:05;100169.44;;;19.75;58.27
75998;BME280;64685;48.762;44.822;2023-04-29T19:44:07;100173.03;;;19.69;58.75
75998;BME280;64685;48.762;44.822;2023-04-29T19:49:10;100177.94;;;19.72;59.10
75998;BME280;64685;48.762;44.822;2023-04-29T19:54:13;100166.63;;;19.75;59.70
75998;BME280;64685;48.762;44.822;2023-04-29T19:59:16;100161.34;;;19.77;59.85
75998;BME280;64685;48.762;44.822;2023-04-29T20:04:19;100177.59;;;19.91;60.02
75998;BME280;64685;48.762;44.822;2023-04-29T20:09:22;100188.97;;;20.01;60.42
75998;BME280;64685;48.762;44.822;2023-04-29T20:14:24;100178.13;;;20.07;60.55
75998;BME280;64685;48.762;44.822;2023-04-29T20:19:27;100180.56;;;20.15;60.90
75998;BME280;64685;48.762;44.822;2023-04-29T20:24:29;100179.81;;;20.25;60.90
75998;BME280;64685;48.762;44.822;2023-04-29T20:29:32;100181.41;;;20.26;61.23
75998;BME280;64685;48.762;44.822;2023-04-29T20:34:35;100180.22;;;20.31;60.90
75998;BME280;64685;48.762;44.822;2023-04-29T20:39:38;100177.75;;;20.29;61.13
75998;BME280;64685;48.762;44.822;2023-04-29T20:44:41;100180.19;;;20.27;61.40
75998;BME280;64685;48.762;44.822;2023-04-29T20:49:43;100177.34;;;20.17;61.58
75998;BME280;64685;48.762;44.822;2023-04-29T20:54:46;100180.94;;;20.07;61.99
75998;BME280;64685;48.762;44.822;2023-04-29T20:59:48;100162.66;;;19.97;62.38
75998;BME280;64685;48.762;44.822;2023-04-29T21:04:51;100159.75;;;19.87;62.86
75998;BME280;64685;48.762;44.822;2023-04-29T21:09:53;100173.09;;;19.79;62.87
75998;BME280;64685;48.762;44.822;2023-04-29T21:14:56;100165.75;;;19.64;63.68
75998;BME280;64685;48.762;44.822;2023-04-29T21:19:59;100181.47;;;19.55;64.35
75998;BME280;64685;48.762;44.822;2023-04-29T21:25:04;100176.97;;;19.47;64.68
75998;BME280;64685;48.762;44.822;2023-04-29T21:30:07;100199.97;;;19.38;64.89
75998;BME280;64685;48.762;44.822;2023-04-29T21:35:10;100198.25;;;19.23;65.08
75998;BME280;64685;48.762;44.822;2023-04-29T21:40:12;100206.56;;;19.02;65.80
75998;BME280;64685;48.762;44.822;2023-04-29T21:45:15;100212.47;;;18.87;66.33
75998;BME280;64685;48.762;44.822;2023-04-29T21:50:18;100206.19;;;18.64;66.85
75998;BME280;64685;48.762;44.822;2023-04-29T21:55:21;100205.97;;;18.39;67.62
75998;BME280;64685;48.762;44.822;2023-04-29T22:00:23;100203.72;;;18.22;68.38
75998;BME280;64685;48.762;44.822;2023-04-29T22:13:20;100231.81;;;17.79;69.93
75998;BME280;64685;48.762;44.822;2023-04-29T22:18:22;100203.03;;;17.70;70.32
75998;BME280;64685;48.762;44.822;2023-04-29T22:23:24;100206.03;;;17.54;70.67
75998;BME280;64685;48.762;44.822;2023-04-29T22:28:27;100197.84;;;17.46;71.31
75998;BME280;64685;48.762;44.822;2023-04-29T22:33:29;100199.28;;;17.36;71.87
75998;BME280;64685;48.762;44.822;2023-04-29T22:38:32;100203.69;;;17.34;72.36
75998;BME280;64685;48.762;44.822;2023-04-29T22:43:36;100212.28;;;17.15;73.14
75998;BME280;64685;48.762;44.822;2023-04-29T22:48:39;100207.59;;;17.00;73.53
75998;BME280;64685;48.762;44.822;2023-04-29T22:53:41;100205.78;;;16.88;74.02
75998;BME280;64685;48.762;44.822;2023-04-29T22:58:44;100196.66;;;16.72;74.59
75998;BME280;64685;48.762;44.822;2023-04-29T23:03:46;100199.66;;;16.60;75.15
75998;BME280;64685;48.762;44.822;2023-04-29T23:08:49;100211.56;;;16.50;75.52
75998;BME280;64685;48.762;44.822;2023-04-29T23:13:51;100210.88;;;16.38;75.45
75998;BME280;64685;48.762;44.822;2023-04-29T23:18:55;100220.38;;;16.30;75.87
75998;BME280;64685;48.762;44.822;2023-04-29T23:23:58;100216.97;;;16.21;76.11
75998;BME280;64685;48.762;44.822;2023-04-29T23:29:00;100209.28;;;15.99;76.72
75998;BME280;64685;48.762;44.822;2023-04-29T23:34:03;100233.38;;;16.15;76.62
75998;BME280;64685;48.762;44.822;2023-04-29T23:39:06;100235.81;;;16.17;76.70
75998;BME280;64685;48.762;44.822;2023-04-29T23:44:08;100242.28;;;16.17;76.75
75998;BME280;64685;48.762;44.822;2023-04-29T23:49:11;100240.34;;;16.21;76.67
75998;BME280;64685;48.762;44.822;2023-04-29T23:54:13;100248.34;;;16.19;76.90
75998;BME280;64685;48.762;44.822;2023-04-29T23:59:15;100260.72;;;16.15;76.64
